sensor_id;sensor_type;location;lat;lon;timestamp;pressure;altitude;pressure_sealevel;temperature
18219;BMP180;9234;49.344;11.120;2022-10-22T00:01:28;97183.00;;;14.20
18219;BMP180;9234;49.344;11.120;2022-10-22T00:03:56;97183.00;;;14.20
18219;BMP180;9234;49.344;11.120;2022-10-22T00:06:25;97172.00;;;14.20
18219;BMP180;9234;49.344;11.120;2022-10-22T00:08:53;97183.00;;;14.20
18219;BMP180;9234;49.344;11.120;2022-10-22T00:11:21;97182.00;;;14.20
18219;BMP180;9234;49.344;11.120;2022-10-22T00:13:50;97185.00;;;14.20
18219;BMP180;9234;49.344;11.120;2022-10-22T00:16:18;97187.00;;;14.20
18219;BMP180;9234;49.344;11.120;2022-10-22T00:18:48;97179.00;;;14.20
18219;BMP180;9234;49.344;11.120;2022-10-22T00:21:16;97184.00;;;14.20
18219;BMP180;9234;49.344;11.120;2022-10-22T00:23:44;97189.00;;;14.20
18219;BMP180;9234;49.344;11.120;2022-10-22T00:26:13;97201.00;;;14.20
18219;BMP180;9234;49.344;11.120;2022-10-22T00:28:41;97198.00;;;14.20
18219;BMP180;9234;49.344;11.120;2022-10-22T00:31:09;97194.00;;;14.20
18219;BMP180;9234;49.344;11.120;2022-10-22T00:33:37;97204.00;;;14.20
18219;BMP180;9234;49.344;11.120;2022-10-22T00:36:08;97205.00;;;14.30
18219;BMP180;9234;49.344;11.120;2022-10-22T00:38:36;97195.00;;;14.30
18219;BMP180;9234;49.344;11.120;2022-10-22T00:41:05;97205.00;;;14.30
18219;BMP180;9234;49.344;11.120;2022-10-22T00:43:51;97208.00;;;14.30
18219;BMP180;9234;49.344;11.120;2022-10-22T00:46:19;97204.00;;;14.30
18219;BMP180;9234;49.344;11.120;2022-10-22T00:48:49;97199.00;;;14.30
18219;BMP180;9234;49.344;11.120;2022-10-22T00:51:21;97192.00;;;14.40
18219;BMP180;9234;49.344;11.120;2022-10-22T00:53:56;97207.00;;;14.40
18219;BMP180;9234;49.344;11.120;2022-10-22T00:56:27;97214.00;;;14.40
18219;BMP180;9234;49.344;11.120;2022-10-22T00:58:58;97218.00;;;14.50
18219;BMP180;9234;49.344;11.120;2022-10-22T01:01:30;97206.00;;;14.50
18219;BMP180;9234;49.344;11.120;2022-10-22T01:03:59;97215.00;;;14.50
18219;BMP180;9234;49.344;11.120;2022-10-22T01:06:31;97192.00;;;14.50
18219;BMP180;9234;49.344;11.120;2022-10-22T01:09:11;97205.00;;;14.60
18219;BMP180;9234;49.344;11.120;2022-10-22T01:12:00;97203.00;;;14.60
18219;BMP180;9234;49.344;11.120;2022-10-22T01:14:43;97207.00;;;14.60
18219;BMP180;9234;49.344;11.120;2022-10-22T01:17:19;97213.00;;;14.60
18219;BMP180;9234;49.344;11.120;2022-10-22T01:20:05;97204.00;;;14.60
18219;BMP180;9234;49.344;11.120;2022-10-22T01:22:43;97199.00;;;14.70
18219;BMP180;9234;49.344;11.120;2022-10-22T01:25:19;97192.00;;;14.70
18219;BMP180;9234;49.344;11.120;2022-10-22T01:28:02;97188.00;;;14.80
18219;BMP180;9234;49.344;11.120;2022-10-22T01:30:37;97187.00;;;14.80
18219;BMP180;9234;49.344;11.120;2022-10-22T01:33:09;97195.00;;;14.80
18219;BMP180;9234;49.344;11.120;2022-10-22T01:35:44;97181.00;;;14.80
18219;BMP180;9234;49.344;11.120;2022-10-22T01:38:16;97190.00;;;14.90
18219;BMP180;9234;49.344;11.120;2022-10-22T01:40:47;97182.00;;;14.90
18219;BMP180;9234;49.344;11.120;2022-10-22T01:43:15;97188.00;;;14.90
18219;BMP180;9234;49.344;11.120;2022-10-22T01:45:49;97169.00;;;14.90
18219;BMP180;9234;49.344;11.120;2022-10-22T01:48:36;97165.00;;;14.90
18219;BMP180;9234;49.344;11.120;2022-10-22T01:51:35;97164.00;;;14.90
18219;BMP180;9234;49.344;11.120;2022-10-22T01:54:18;97156.00;;;15.00
18219;BMP180;9234;49.344;11.120;2022-10-22T01:56:59;97159.00;;;15.00
18219;BMP180;9234;49.344;11.120;2022-10-22T01:59:44;97164.00;;;15.00
18219;BMP180;9234;49.344;11.120;2022-10-22T02:02:29;97164.00;;;15.00
18219;BMP180;9234;49.344;11.120;2022-10-22T02:05:05;97164.00;;;15.00
18219;BMP180;9234;49.344;11.120;2022-10-22T02:07:40;97150.00;;;15.00
18219;BMP180;9234;49.344;11.120;2022-10-22T02:10:11;97161.00;;;15.00
18219;BMP180;9234;49.344;11.120;2022-10-22T02:12:42;97151.00;;;15.00
18219;BMP180;9234;49.344;11.120;2022-10-22T02:15:12;97165.00;;;15.00
18219;BMP180;9234;49.344;11.120;2022-10-22T02:17:45;97166.00;;;15.00
18219;BMP180;9234;49.344;11.120;2022-10-22T02:20:18;97157.00;;;15.00
18219;BMP180;9234;49.344;11.120;2022-10-22T02:22:47;97154.00;;;15.00
18219;BMP180;9234;49.344;11.120;2022-10-22T02:25:17;97163.00;;;15.00
18219;BMP180;9234;49.344;11.120;2022-10-22T02:27:50;97164.00;;;15.00
18219;BMP180;9234;49.344;11.120;2022-10-22T02:30:21;97166.00;;;15.00
18219;BMP180;9234;49.344;11.120;2022-10-22T02:32:58;97170.00;;;15.00
18219;BMP180;9234;49.344;11.120;2022-10-22T02:35:28;97176.00;;;15.00
18219;BMP180;9234;49.344;11.120;2022-10-22T02:37:58;97176.00;;;15.00
18219;BMP180;9234;49.344;11.120;2022-10-22T02:40:27;97170.00;;;15.00
18219;BMP180;9234;49.344;11.120;2022-10-22T02:42:57;97187.00;;;15.00
18219;BMP180;9234;49.344;11.120;2022-10-22T02:45:26;97178.00;;;15.00
18219;BMP180;9234;49.344;11.120;2022-10-22T02:47:56;97175.00;;;15.00
18219;BMP180;9234;49.344;11.120;2022-10-22T02:50:24;97178.00;;;14.90
18219;BMP180;9234;49.344;11.120;2022-10-22T02:52:53;97170.00;;;15.00
18219;BMP180;9234;49.344;11.120;2022-10-22T02:55:21;97170.00;;;14.90
18219;BMP180;9234;49.344;11.120;2022-10-22T02:57:49;97171.00;;;14.90
18219;BMP180;9234;49.344;11.120;2022-10-22T03:00:18;97166.00;;;14.90
18219;BMP180;9234;49.344;11.120;2022-10-22T03:02:46;97167.00;;;14.90
18219;BMP180;9234;49.344;11.120;2022-10-22T03:05:16;97172.00;;;14.90
18219;BMP180;9234;49.344;11.120;2022-10-22T03:07:44;97166.00;;;14.90
18219;BMP180;9234;49.344;11.120;2022-10-22T03:10:12;97145.00;;;14.90
18219;BMP180;9234;49.344;11.120;2022-10-22T03:12:40;97157.00;;;14.90
18219;BMP180;9234;49.344;11.120;2022-10-22T03:15:09;97162.00;;;14.90
18219;BMP180;9234;49.344;11.120;2022-10-22T03:17:37;97182.00;;;14.90
18219;BMP180;9234;49.344;11.120;2022-10-22T03:20:07;97181.00;;;14.90
18219;BMP180;9234;49.344;11.120;2022-10-22T03:22:40;97161.00;;;14.90
18219;BMP180;9234;49.344;11.120;2022-10-22T03:25:14;97160.00;;;14.90
18219;BMP180;9234;49.344;11.120;2022-10-22T03:27:44;97169.00;;;14.90
18219;BMP180;9234;49.344;11.120;2022-10-22T03:30:13;97168.00;;;14.80
18219;BMP180;9234;49.344;11.120;2022-10-22T03:32:41;97165.00;;;14.80
18219;BMP180;9234;49.344;11.120;2022-10-22T03:35:09;97180.00;;;14.80
18219;BMP180;9234;49.344;11.120;2022-10-22T03:37:39;97192.00;;;14.80
18219;BMP180;9234;49.344;11.120;2022-10-22T03:40:10;97191.00;;;14.80
18219;BMP180;9234;49.344;11.120;2022-10-22T03:42:40;97205.00;;;14.80
18219;BMP180;9234;49.344;11.120;2022-10-22T03:45:10;97208.00;;;14.80
18219;BMP180;9234;49.344;11.120;2022-10-22T03:47:38;97222.00;;;14.80
18219;BMP180;9234;49.344;11.120;2022-10-22T03:50:08;97235.00;;;14.70
18219;BMP180;9234;49.344;11.120;2022-10-22T03:52:39;97232.00;;;14.70
18219;BMP180;9234;49.344;11.120;2022-10-22T03:55:09;97227.00;;;14.70
18219;BMP180;9234;49.344;11.120;2022-10-22T03:57:37;97221.00;;;14.70
18219;BMP180;9234;49.344;11.120;2022-10-22T04:00:08;97233.00;;;14.70
18219;BMP180;9234;49.344;11.120;2022-10-22T04:02:37;97223.00;;;14.70
18219;BMP180;9234;49.344;11.120;2022-10-22T04:05:06;97224.00;;;14.70
18219;BMP180;9234;49.344;11.120;2022-10-22T04:07:35;97237.00;;;14.70
18219;BMP180;9234;49.344;11.120;2022-10-22T04:10:06;97243.00;;;14.70
18219;BMP180;9234;49.344;11.120;2022-10-22T04:12:34;97254.00;;;14.70
18219;BMP180;9234;49.344;11.120;2022-10-22T04:15:03;97258.00;;;14.70
18219;BMP180;9234;49.344;11.120;2022-10-22T04:17:35;97263.00;;;14.70
18219;BMP180;9234;49.344;11.120;2022-10-22T04:20:05;97267.00;;;14.70
18219;BMP180;9234;49.344;11.120;2022-10-22T04:22:34;97262.00;;;14.70
18219;BMP180;9234;49.344;11.120;2022-10-22T04:25:04;97258.00;;;14.70
18219;BMP180;9234;49.344;11.120;2022-10-22T04:27:34;97246.00;;;14.70
18219;BMP180;9234;49.344;11.120;2022-10-22T04:30:04;97253.00;;;14.70
18219;BMP180;9234;49.344;11.120;2022-10-22T04:32:33;97258.00;;;14.70
18219;BMP180;9234;49.344;11.120;2022-10-22T04:35:01;97258.00;;;14.70
18219;BMP180;9234;49.344;11.120;2022-10-22T04:37:29;97266.00;;;14.70
18219;BMP180;9234;49.344;11.120;2022-10-22T04:39:58;97273.00;;;14.70
18219;BMP180;9234;49.344;11.120;2022-10-22T04:42:28;97277.00;;;14.60
18219;BMP180;9234;49.344;11.120;2022-10-22T04:44:56;97285.00;;;14.60
18219;BMP180;9234;49.344;11.120;2022-10-22T04:47:24;97285.00;;;14.60
18219;BMP180;9234;49.344;11.120;2022-10-22T04:49:52;97288.00;;;14.60
18219;BMP180;9234;49.344;11.120;2022-10-22T04:52:20;97293.00;;;14.60
18219;BMP180;9234;49.344;11.120;2022-10-22T04:54:49;97306.00;;;14.60
18219;BMP180;9234;49.344;11.120;2022-10-22T04:57:17;97290.00;;;14.60
18219;BMP180;9234;49.344;11.120;2022-10-22T04:59:46;97291.00;;;14.60
18219;BMP180;9234;49.344;11.120;2022-10-22T05:02:15;97290.00;;;14.60
18219;BMP180;9234;49.344;11.120;2022-10-22T05:04:43;97289.00;;;14.60
18219;BMP180;9234;49.344;11.120;2022-10-22T05:07:11;97294.00;;;14.50
18219;BMP180;9234;49.344;11.120;2022-10-22T05:09:39;97293.00;;;14.50
18219;BMP180;9234;49.344;11.120;2022-10-22T05:12:07;97296.00;;;14.50
18219;BMP180;9234;49.344;11.120;2022-10-22T05:14:36;97301.00;;;14.50
18219;BMP180;9234;49.344;11.120;2022-10-22T05:17:12;97301.00;;;14.50
18219;BMP180;9234;49.344;11.120;2022-10-22T05:19:40;97292.00;;;14.50
18219;BMP180;9234;49.344;11.120;2022-10-22T05:22:08;97310.00;;;14.50
18219;BMP180;9234;49.344;11.120;2022-10-22T05:24:37;97307.00;;;14.40
18219;BMP180;9234;49.344;11.120;2022-10-22T05:27:05;97307.00;;;14.40
18219;BMP180;9234;49.344;11.120;2022-10-22T05:29:33;97307.00;;;14.30
18219;BMP180;9234;49.344;11.120;2022-10-22T05:32:01;97306.00;;;14.30
18219;BMP180;9234;49.344;11.120;2022-10-22T05:34:31;97307.00;;;14.20
18219;BMP180;9234;49.344;11.120;2022-10-22T05:37:02;97316.00;;;14.20
18219;BMP180;9234;49.344;11.120;2022-10-22T05:39:30;97311.00;;;14.10
18219;BMP180;9234;49.344;11.120;2022-10-22T05:42:02;97310.00;;;14.10
18219;BMP180;9234;49.344;11.120;2022-10-22T05:44:31;97311.00;;;14.00
18219;BMP180;9234;49.344;11.120;2022-10-22T05:46:59;97317.00;;;14.00
18219;BMP180;9234;49.344;11.120;2022-10-22T05:49:27;97312.00;;;14.00
18219;BMP180;9234;49.344;11.120;2022-10-22T05:51:57;97323.00;;;13.90
18219;BMP180;9234;49.344;11.120;2022-10-22T05:54:25;97315.00;;;13.90
18219;BMP180;9234;49.344;11.120;2022-10-22T05:56:53;97327.00;;;13.80
18219;BMP180;9234;49.344;11.120;2022-10-22T05:59:21;97316.00;;;13.80
18219;BMP180;9234;49.344;11.120;2022-10-22T06:01:49;97323.00;;;13.80
18219;BMP180;9234;49.344;11.120;2022-10-22T06:04:18;97325.00;;;13.80
18219;BMP180;9234;49.344;11.120;2022-10-22T06:06:49;97337.00;;;13.80
18219;BMP180;9234;49.344;11.120;2022-10-22T06:09:24;97329.00;;;13.70
18219;BMP180;9234;49.344;11.120;2022-10-22T06:11:54;97335.00;;;13.70
18219;BMP180;9234;49.344;11.120;2022-10-22T06:14:23;97330.00;;;13.70
18219;BMP180;9234;49.344;11.120;2022-10-22T06:16:52;97342.00;;;13.70
18219;BMP180;9234;49.344;11.120;2022-10-22T06:19:22;97353.00;;;13.70
18219;BMP180;9234;49.344;11.120;2022-10-22T06:21:51;97351.00;;;13.70
18219;BMP180;9234;49.344;11.120;2022-10-22T06:24:21;97349.00;;;13.70
18219;BMP180;9234;49.344;11.120;2022-10-22T06:26:50;97362.00;;;13.70
18219;BMP180;9234;49.344;11.120;2022-10-22T06:29:19;97369.00;;;13.70
18219;BMP180;9234;49.344;11.120;2022-10-22T06:31:48;97383.00;;;13.70
18219;BMP180;9234;49.344;11.120;2022-10-22T06:34:16;97384.00;;;13.70
18219;BMP180;9234;49.344;11.120;2022-10-22T06:36:45;97382.00;;;13.80
18219;BMP180;9234;49.344;11.120;2022-10-22T06:39:16;97403.00;;;13.80
18219;BMP180;9234;49.344;11.120;2022-10-22T06:41:46;97410.00;;;13.80
18219;BMP180;9234;49.344;11.120;2022-10-22T06:44:20;97407.00;;;13.80
18219;BMP180;9234;49.344;11.120;2022-10-22T06:46:49;97404.00;;;13.80
18219;BMP180;9234;49.344;11.120;2022-10-22T06:49:19;97409.00;;;13.90
18219;BMP180;9234;49.344;11.120;2022-10-22T06:51:49;97409.00;;;13.90
18219;BMP180;9234;49.344;11.120;2022-10-22T06:54:18;97416.00;;;13.90
18219;BMP180;9234;49.344;11.120;2022-10-22T06:56:48;97429.00;;;14.00
18219;BMP180;9234;49.344;11.120;2022-10-22T06:59:16;97415.00;;;14.00
18219;BMP180;9234;49.344;11.120;2022-10-22T07:01:45;97424.00;;;14.00
18219;BMP180;9234;49.344;11.120;2022-10-22T07:04:13;97447.00;;;14.10
18219;BMP180;9234;49.344;11.120;2022-10-22T07:06:41;97447.00;;;14.10
18219;BMP180;9234;49.344;11.120;2022-10-22T07:09:09;97442.00;;;14.10
18219;BMP180;9234;49.344;11.120;2022-10-22T07:11:40;97458.00;;;14.20
18219;BMP180;9234;49.344;11.120;2022-10-22T07:14:11;97448.00;;;14.30
18219;BMP180;9234;49.344;11.120;2022-10-22T07:16:40;97443.00;;;14.30
18219;BMP180;9234;49.344;11.120;2022-10-22T07:19:12;97449.00;;;14.40
18219;BMP180;9234;49.344;11.120;2022-10-22T07:21:40;97450.00;;;14.40
18219;BMP180;9234;49.344;11.120;2022-10-22T07:24:08;97461.00;;;14.50
18219;BMP180;9234;49.344;11.120;2022-10-22T07:26:37;97461.00;;;14.60
18219;BMP180;9234;49.344;11.120;2022-10-22T07:29:05;97472.00;;;14.60
18219;BMP180;9234;49.344;11.120;2022-10-22T07:31:35;97478.00;;;14.70
18219;BMP180;9234;49.344;11.120;2022-10-22T07:34:03;97481.00;;;14.80
18219;BMP180;9234;49.344;11.120;2022-10-22T07:36:32;97477.00;;;14.80
18219;BMP180;9234;49.344;11.120;2022-10-22T07:39:01;97473.00;;;14.90
18219;BMP180;9234;49.344;11.120;2022-10-22T07:41:30;97471.00;;;15.00
18219;BMP180;9234;49.344;11.120;2022-10-22T07:43:58;97475.00;;;15.00
18219;BMP180;9234;49.344;11.120;2022-10-22T07:46:27;97468.00;;;15.10
18219;BMP180;9234;49.344;11.120;2022-10-22T07:48:56;97482.00;;;15.20
18219;BMP180;9234;49.344;11.120;2022-10-22T07:51:25;97477.00;;;15.30
18219;BMP180;9234;49.344;11.120;2022-10-22T07:53:53;97485.00;;;15.30
18219;BMP180;9234;49.344;11.120;2022-10-22T07:56:21;97509.00;;;15.40
18219;BMP180;9234;49.344;11.120;2022-10-22T07:58:49;97496.00;;;15.50
18219;BMP180;9234;49.344;11.120;2022-10-22T08:01:18;97513.00;;;15.50
18219;BMP180;9234;49.344;11.120;2022-10-22T08:03:46;97524.00;;;15.60
18219;BMP180;9234;49.344;11.120;2022-10-22T08:06:16;97522.00;;;15.60
18219;BMP180;9234;49.344;11.120;2022-10-22T08:08:45;97541.00;;;15.70
18219;BMP180;9234;49.344;11.120;2022-10-22T08:11:13;97540.00;;;15.80
18219;BMP180;9234;49.344;11.120;2022-10-22T08:13:41;97542.00;;;15.90
18219;BMP180;9234;49.344;11.120;2022-10-22T08:16:13;97544.00;;;15.90
18219;BMP180;9234;49.344;11.120;2022-10-22T08:18:41;97531.00;;;16.00
18219;BMP180;9234;49.344;11.120;2022-10-22T08:21:10;97522.00;;;16.00
18219;BMP180;9234;49.344;11.120;2022-10-22T08:23:39;97505.00;;;16.00
18219;BMP180;9234;49.344;11.120;2022-10-22T08:26:08;97515.00;;;16.00
18219;BMP180;9234;49.344;11.120;2022-10-22T08:28:37;97520.00;;;16.00
18219;BMP180;9234;49.344;11.120;2022-10-22T08:31:06;97511.00;;;16.00
18219;BMP180;9234;49.344;11.120;2022-10-22T08:33:36;97535.00;;;15.90
18219;BMP180;9234;49.344;11.120;2022-10-22T08:36:06;97533.00;;;15.90
18219;BMP180;9234;49.344;11.120;2022-10-22T08:38:35;97531.00;;;15.90
18219;BMP180;9234;49.344;11.120;2022-10-22T08:41:11;97533.00;;;15.90
18219;BMP180;9234;49.344;11.120;2022-10-22T08:44:33;97534.00;;;15.80
18219;BMP180;9234;49.344;11.120;2022-10-22T08:47:31;97540.00;;;15.80
18219;BMP180;9234;49.344;11.120;2022-10-22T08:50:07;97530.00;;;15.80
18219;BMP180;9234;49.344;11.120;2022-10-22T08:52:39;97539.00;;;15.80
18219;BMP180;9234;49.344;11.120;2022-10-22T08:55:13;97545.00;;;15.90
18219;BMP180;9234;49.344;11.120;2022-10-22T08:57:54;97540.00;;;15.90
18219;BMP180;9234;49.344;11.120;2022-10-22T09:00:34;97535.00;;;16.00
18219;BMP180;9234;49.344;11.120;2022-10-22T09:03:30;97539.00;;;16.00
18219;BMP180;9234;49.344;11.120;2022-10-22T09:06:09;97541.00;;;16.10
18219;BMP180;9234;49.344;11.120;2022-10-22T09:08:39;97539.00;;;16.20
18219;BMP180;9234;49.344;11.120;2022-10-22T09:11:21;97538.00;;;16.30
18219;BMP180;9234;49.344;11.120;2022-10-22T09:13:54;97539.00;;;16.40
18219;BMP180;9234;49.344;11.120;2022-10-22T09:16:34;97539.00;;;16.50
18219;BMP180;9234;49.344;11.120;2022-10-22T09:19:17;97548.00;;;16.50
18219;BMP180;9234;49.344;11.120;2022-10-22T09:21:55;97540.00;;;16.60
18219;BMP180;9234;49.344;11.120;2022-10-22T09:24:33;97548.00;;;16.60
18219;BMP180;9234;49.344;11.120;2022-10-22T09:27:12;97553.00;;;16.70
18219;BMP180;9234;49.344;11.120;2022-10-22T09:29:45;97545.00;;;16.90
18219;BMP180;9234;49.344;11.120;2022-10-22T09:32:14;97547.00;;;17.10
18219;BMP180;9234;49.344;11.120;2022-10-22T09:34:43;97553.00;;;17.30
18219;BMP180;9234;49.344;11.120;2022-10-22T09:37:17;97545.00;;;17.50
18219;BMP180;9234;49.344;11.120;2022-10-22T09:39:50;97561.00;;;17.70
18219;BMP180;9234;49.344;11.120;2022-10-22T09:42:21;97557.00;;;17.80
18219;BMP180;9234;49.344;11.120;2022-10-22T09:44:53;97547.00;;;18.00
18219;BMP180;9234;49.344;11.120;2022-10-22T09:47:33;97553.00;;;18.10
18219;BMP180;9234;49.344;11.120;2022-10-22T09:50:27;97558.00;;;18.30
18219;BMP180;9234;49.344;11.120;2022-10-22T09:53:05;97572.00;;;18.50
18219;BMP180;9234;49.344;11.120;2022-10-22T09:55:40;97577.00;;;18.70
18219;BMP180;9234;49.344;11.120;2022-10-22T09:58:12;97571.00;;;18.80
18219;BMP180;9234;49.344;11.120;2022-10-22T10:00:45;97572.00;;;18.80
18219;BMP180;9234;49.344;11.120;2022-10-22T10:03:20;97577.00;;;18.80
18219;BMP180;9234;49.344;11.120;2022-10-22T10:05:53;97573.00;;;18.70
18219;BMP180;9234;49.344;11.120;2022-10-22T10:08:22;97573.00;;;18.60
18219;BMP180;9234;49.344;11.120;2022-10-22T10:10:54;97580.00;;;18.70
18219;BMP180;9234;49.344;11.120;2022-10-22T10:13:45;97597.00;;;18.70
18219;BMP180;9234;49.344;11.120;2022-10-22T10:16:40;97587.00;;;18.80
18219;BMP180;9234;49.344;11.120;2022-10-22T10:19:38;97582.00;;;19.00
18219;BMP180;9234;49.344;11.120;2022-10-22T10:22:24;97576.00;;;19.10
18219;BMP180;9234;49.344;11.120;2022-10-22T10:25:22;97585.00;;;19.20
18219;BMP180;9234;49.344;11.120;2022-10-22T10:28:01;97592.00;;;19.50
18219;BMP180;9234;49.344;11.120;2022-10-22T10:30:33;97597.00;;;19.50
18219;BMP180;9234;49.344;11.120;2022-10-22T10:33:23;97591.00;;;19.40
18219;BMP180;9234;49.344;11.120;2022-10-22T10:36:02;97585.00;;;19.50
18219;BMP180;9234;49.344;11.120;2022-10-22T10:38:46;97577.00;;;19.60
18219;BMP180;9234;49.344;11.120;2022-10-22T10:41:31;97576.00;;;19.80
18219;BMP180;9234;49.344;11.120;2022-10-22T10:44:22;97582.00;;;20.10
18219;BMP180;9234;49.344;11.120;2022-10-22T10:47:10;97588.00;;;20.30
18219;BMP180;9234;49.344;11.120;2022-10-22T10:49:42;97587.00;;;20.60
18219;BMP180;9234;49.344;11.120;2022-10-22T10:52:21;97589.00;;;20.90
18219;BMP180;9234;49.344;11.120;2022-10-22T10:55:03;97578.00;;;21.00
18219;BMP180;9234;49.344;11.120;2022-10-22T10:57:45;97586.00;;;21.20
18219;BMP180;9234;49.344;11.120;2022-10-22T11:00:19;97585.00;;;21.40
18219;BMP180;9234;49.344;11.120;2022-10-22T11:03:28;97594.00;;;21.50
18219;BMP180;9234;49.344;11.120;2022-10-22T11:06:00;97590.00;;;21.60
18219;BMP180;9234;49.344;11.120;2022-10-22T11:08:33;97590.00;;;21.50
18219;BMP180;9234;49.344;11.120;2022-10-22T11:11:10;97578.00;;;21.40
18219;BMP180;9234;49.344;11.120;2022-10-22T11:13:47;97589.00;;;21.30
18219;BMP180;9234;49.344;11.120;2022-10-22T11:16:23;97582.00;;;21.30
18219;BMP180;9234;49.344;11.120;2022-10-22T11:19:02;97594.00;;;21.20
18219;BMP180;9234;49.344;11.120;2022-10-22T11:21:39;97592.00;;;21.30
18219;BMP180;9234;49.344;11.120;2022-10-22T11:24:16;97596.00;;;21.50
18219;BMP180;9234;49.344;11.120;2022-10-22T11:26:54;97594.00;;;21.70
18219;BMP180;9234;49.344;11.120;2022-10-22T11:29:29;97595.00;;;22.00
18219;BMP180;9234;49.344;11.120;2022-10-22T11:32:02;97581.00;;;22.30
18219;BMP180;9234;49.344;11.120;2022-10-22T11:34:38;97586.00;;;22.50
18219;BMP180;9234;49.344;11.120;2022-10-22T11:37:12;97581.00;;;22.90
18219;BMP180;9234;49.344;11.120;2022-10-22T11:39:47;97590.00;;;23.20
18219;BMP180;9234;49.344;11.120;2022-10-22T11:42:20;97582.00;;;23.60
18219;BMP180;9234;49.344;11.120;2022-10-22T11:44:59;97583.00;;;24.00
18219;BMP180;9234;49.344;11.120;2022-10-22T11:47:32;97579.00;;;24.30
18219;BMP180;9234;49.344;11.120;2022-10-22T11:50:19;97578.00;;;24.40
18219;BMP180;9234;49.344;11.120;2022-10-22T11:53:03;97575.00;;;24.30
18219;BMP180;9234;49.344;11.120;2022-10-22T11:55:44;97578.00;;;23.90
18219;BMP180;9234;49.344;11.120;2022-10-22T11:58:38;97586.00;;;23.80
18219;BMP180;9234;49.344;11.120;2022-10-22T12:01:26;97578.00;;;24.00
18219;BMP180;9234;49.344;11.120;2022-10-22T12:04:22;97588.00;;;24.20
18219;BMP180;9234;49.344;11.120;2022-10-22T12:07:32;97581.00;;;24.50
18219;BMP180;9234;49.344;11.120;2022-10-22T12:10:18;97582.00;;;24.90
18219;BMP180;9234;49.344;11.120;2022-10-22T12:12:55;97571.00;;;24.80
18219;BMP180;9234;49.344;11.120;2022-10-22T12:15:26;97570.00;;;24.30
18219;BMP180;9234;49.344;11.120;2022-10-22T12:18:00;97575.00;;;23.80
18219;BMP180;9234;49.344;11.120;2022-10-22T12:20:29;97575.00;;;23.40
18219;BMP180;9234;49.344;11.120;2022-10-22T12:22:58;97569.00;;;23.00
18219;BMP180;9234;49.344;11.120;2022-10-22T12:25:31;97570.00;;;22.90
18219;BMP180;9234;49.344;11.120;2022-10-22T12:28:02;97574.00;;;22.80
18219;BMP180;9234;49.344;11.120;2022-10-22T12:30:32;97569.00;;;22.60
18219;BMP180;9234;49.344;11.120;2022-10-22T12:33:04;97565.00;;;22.60
18219;BMP180;9234;49.344;11.120;2022-10-22T12:35:41;97566.00;;;23.40
18219;BMP180;9234;49.344;11.120;2022-10-22T12:38:14;97567.00;;;24.80
18219;BMP180;9234;49.344;11.120;2022-10-22T12:40:45;97555.00;;;25.30
18219;BMP180;9234;49.344;11.120;2022-10-22T12:43:18;97560.00;;;25.30
18219;BMP180;9234;49.344;11.120;2022-10-22T12:45:48;97562.00;;;25.40
18219;BMP180;9234;49.344;11.120;2022-10-22T12:48:21;97554.00;;;25.10
18219;BMP180;9234;49.344;11.120;2022-10-22T12:50:53;97564.00;;;24.50
18219;BMP180;9234;49.344;11.120;2022-10-22T12:53:26;97558.00;;;23.80
18219;BMP180;9234;49.344;11.120;2022-10-22T12:56:01;97545.00;;;23.20
18219;BMP180;9234;49.344;11.120;2022-10-22T12:58:38;97555.00;;;22.70
18219;BMP180;9234;49.344;11.120;2022-10-22T13:01:10;97564.00;;;22.40
18219;BMP180;9234;49.344;11.120;2022-10-22T13:03:42;97562.00;;;22.30
18219;BMP180;9234;49.344;11.120;2022-10-22T13:06:23;97559.00;;;23.30
18219;BMP180;9234;49.344;11.120;2022-10-22T13:09:02;97560.00;;;23.80
18219;BMP180;9234;49.344;11.120;2022-10-22T13:11:40;97563.00;;;23.70
18219;BMP180;9234;49.344;11.120;2022-10-22T13:14:24;97559.00;;;23.50
18219;BMP180;9234;49.344;11.120;2022-10-22T13:17:06;97560.00;;;23.20
18219;BMP180;9234;49.344;11.120;2022-10-22T13:19:45;97554.00;;;23.00
18219;BMP180;9234;49.344;11.120;2022-10-22T13:22:32;97547.00;;;22.90
18219;BMP180;9234;49.344;11.120;2022-10-22T13:25:20;97558.00;;;22.80
18219;BMP180;9234;49.344;11.120;2022-10-22T13:27:53;97553.00;;;22.70
18219;BMP180;9234;49.344;11.120;2022-10-22T13:30:26;97547.00;;;22.90
18219;BMP180;9234;49.344;11.120;2022-10-22T13:32:57;97552.00;;;23.50
18219;BMP180;9234;49.344;11.120;2022-10-22T13:35:29;97543.00;;;23.60
18219;BMP180;9234;49.344;11.120;2022-10-22T13:38:00;97551.00;;;23.60
18219;BMP180;9234;49.344;11.120;2022-10-22T13:40:28;97552.00;;;23.50
18219;BMP180;9234;49.344;11.120;2022-10-22T13:42:58;97543.00;;;23.50
18219;BMP180;9234;49.344;11.120;2022-10-22T13:45:26;97553.00;;;23.70
18219;BMP180;9234;49.344;11.120;2022-10-22T13:47:55;97549.00;;;23.90
18219;BMP180;9234;49.344;11.120;2022-10-22T13:50:24;97555.00;;;24.00
18219;BMP180;9234;49.344;11.120;2022-10-22T13:52:54;97553.00;;;24.00
18219;BMP180;9234;49.344;11.120;2022-10-22T13:55:26;97552.00;;;23.80
18219;BMP180;9234;49.344;11.120;2022-10-22T13:57:58;97561.00;;;23.80
18219;BMP180;9234;49.344;11.120;2022-10-22T14:00:28;97553.00;;;23.70
18219;BMP180;9234;49.344;11.120;2022-10-22T14:02:58;97562.00;;;23.60
18219;BMP180;9234;49.344;11.120;2022-10-22T14:05:26;97557.00;;;23.90
18219;BMP180;9234;49.344;11.120;2022-10-22T14:07:57;97561.00;;;24.30
18219;BMP180;9234;49.344;11.120;2022-10-22T14:10:26;97568.00;;;24.20
18219;BMP180;9234;49.344;11.120;2022-10-22T14:12:55;97565.00;;;23.80
18219;BMP180;9234;49.344;11.120;2022-10-22T14:15:28;97559.00;;;23.40
18219;BMP180;9234;49.344;11.120;2022-10-22T14:17:59;97554.00;;;23.10
18219;BMP180;9234;49.344;11.120;2022-10-22T14:20:30;97555.00;;;23.20
18219;BMP180;9234;49.344;11.120;2022-10-22T14:23:10;97557.00;;;23.30
18219;BMP180;9234;49.344;11.120;2022-10-22T14:25:40;97548.00;;;23.10
18219;BMP180;9234;49.344;11.120;2022-10-22T14:28:10;97551.00;;;22.90
18219;BMP180;9234;49.344;11.120;2022-10-22T14:30:40;97547.00;;;22.60
18219;BMP180;9234;49.344;11.120;2022-10-22T14:33:14;97552.00;;;22.30
18219;BMP180;9234;49.344;11.120;2022-10-22T14:35:43;97557.00;;;22.10
18219;BMP180;9234;49.344;11.120;2022-10-22T14:38:12;97553.00;;;21.90
18219;BMP180;9234;49.344;11.120;2022-10-22T14:40:41;97555.00;;;21.80
18219;BMP180;9234;49.344;11.120;2022-10-22T14:43:11;97545.00;;;21.70